Prudentia — PB4900 — position and weather

sailwx.info

Track history (hours):
 
Tides and Currents Weather Stations Pressure Air Temp Water Temp Dewpoint Dewpoint Depression Visibility Wind Speed Wind Dir Waves Ship Positions

Prudentia

Last reported at 2017-Dec-11 17:00 UTC. Time now 2017-Dec-14 08:14 UTC.
Position N 52°08' E 004°32'.

Length 70 m; draft 1.8 m.

Type: Ship. MMSI: 244660779.

Date/timePositionNaut miles runAvg speedWind from/ knotsBaromVisibWave heightAir tempDewpointWater temp
2017-Dec-11 17:00N 52°08' E 004°32'1 1.7
2017-Dec-11 16:28N 52°08' E 004°34'2 4.1
2017-Dec-11 15:59N 52°08' E 004°37'2 3.0
2017-Dec-11 15:23N 52°08' E 004°40'1 3.3
2017-Dec-11 15:00N 52°07' E 004°40'2 4.7
2017-Dec-11 14:30N 52°04' E 004°40'2 4.6
2017-Dec-11 14:00N 52°02' E 004°40'1 1.8
2017-Dec-11 13:30N 52°01' E 004°41'2 3.1
2017-Dec-11 13:00N 51°60' E 004°42'3 5.3
2017-Dec-11 12:30N 51°58' E 004°38'2 4.6
2017-Dec-11 12:00N 51°56' E 004°37'3 5.5
2017-Dec-11 11:30N 51°54' E 004°33'4 7.3
2017-Dec-11 11:00N 51°52' E 004°38'3 6.7
2017-Dec-11 10:31N 51°49' E 004°41'4 7.2
2017-Dec-11 10:00N 51°49' E 004°47'4 7.5
2017-Dec-11 09:30N 51°49' E 004°53'4 7.9
2017-Dec-11 09:01N 51°49' E 004°59'4 8.6
2017-Dec-11 08:29N 51°49' E 005°06'5 8.7
2017-Dec-11 07:57N 51°49' E 005°14'4 8.5
2017-Dec-11 07:31N 51°49' E 005°20'9 8.0
2017-Dec-11 06:25N 51°54' E 005°32'4 9.3
2017-Dec-11 05:57N 51°54' E 005°39'13 0.8
2017-Dec-10 14:05N 51°52' E 005°59'2 8.3
2017-Dec-10 13:51N 51°53' E 006°01'3 9.6
2017-Dec-10 13:31N 51°51' E 006°06'5 9.8
2017-Dec-10 13:00N 51°50' E 006°13'12 8.4
2017-Dec-10 11:34N 51°42' E 006°28'110.2
2017-Dec-10 11:27N 51°41' E 006°28'4 9.4
2017-Dec-10 11:01N 51°40' E 006°35'5 8.7
2017-Dec-10 10:29N 51°35' E 006°36'4 7.5
2017-Dec-10 10:01N 51°34' E 006°41'4 8.3
2017-Dec-10 09:30N 51°30' E 006°43'3 6.5
2017-Dec-10 09:00N 51°27' E 006°43'4 8.1
2017-Dec-10 08:30N 51°22' E 006°42'4 5.9
2017-Dec-10 07:51N 51°19' E 006°44'3 8.8
2017-Dec-10 07:28N 51°15' E 006°43'2 3.8
2017-Dec-10 07:00N 51°14' E 006°44'4 7.5
2017-Dec-10 06:31N 51°11' E 006°48'15 1.3
2017-Dec-09 18:56N 50°59' E 006°60'4 9.1
2017-Dec-09 18:30N 50°55' E 006°59'3 6.2
2017-Dec-09 17:56N 50°52' E 007°01'94 4.3
2017-Dec-08 20:11N 49°35' E 008°25'2 9.5
2017-Dec-08 20:00N 49°33' E 008°25'4 8.8
2017-Dec-08 19:30N 49°29' E 008°27'3 5.6
2017-Dec-08 19:00N 49°27' E 008°29'  
2017-Dec-04 07:57N 49°22' E 008°30'2 4.7
2017-Dec-04 07:30N 49°24' E 008°30'2 4.9
2017-Dec-04 07:00N 49°26' E 008°30'2 4.8
2017-Dec-04 06:30N 49°27' E 008°27'2 4.1
2017-Dec-04 06:00N 49°29' E 008°28'3 5.5
2017-Dec-04 05:30N 49°31' E 008°26'3 5.4
2017-Dec-04 04:58N 49°34' E 008°25'85 2.1
2017-Dec-02 12:10N 50°43' E 007°09'1 4.9
2017-Dec-02 12:00N 50°43' E 007°08'2 4.3
2017-Dec-02 11:30N 50°45' E 007°06'2 4.4
2017-Dec-02 11:00N 50°47' E 007°03'5 3.1
2017-Dec-02 09:23N 50°51' E 007°00'2 4.3
2017-Dec-02 08:59N 50°52' E 007°02'1 2.5
2017-Dec-02 08:29N 50°54' E 007°02'2 4.0
2017-Dec-02 08:00N 50°54' E 006°59'3 4.6
2017-Dec-02 07:26N 50°57' E 006°58'2 4.2
2017-Dec-02 06:58N 50°59' E 006°60'10 0.9
2017-Dec-01 19:52N 51°08' E 006°51'2 4.1
2017-Dec-01 19:30N 51°09' E 006°51'1 2.5
2017-Dec-01 19:00N 51°09' E 006°49'1 2.4
2017-Dec-01 18:30N 51°10' E 006°48'2 3.6
2017-Dec-01 18:01N 51°11' E 006°46'2 3.3
2017-Dec-01 17:30N 51°12' E 006°44'  
Track history (hours):
 
Tides and Currents Weather Stations Pressure Air Temp Water Temp Dewpoint Dewpoint Depression Visibility Wind Speed Wind Dir Waves Ship Positions

Prudentia

Last reported at 2017-Dec-11 17:00 UTC. Time now 2017-Dec-14 08:14 UTC.
Position N 52°08' E 004°32'.

Length 70 m; draft 1.8 m.

Type: Ship. MMSI: 244660779.

Date/timePositionNaut miles runAvg speedWind from/ knotsBaromVisibWave heightAir tempDewpointWater temp
2017-Dec-11 17:00N 52°08' E 004°32'1 1.7
2017-Dec-11 16:28N 52°08' E 004°34'2 4.1
2017-Dec-11 15:59N 52°08' E 004°37'2 3.0
2017-Dec-11 15:23N 52°08' E 004°40'1 3.3
2017-Dec-11 15:00N 52°07' E 004°40'2 4.7
2017-Dec-11 14:30N 52°04' E 004°40'2 4.6
2017-Dec-11 14:00N 52°02' E 004°40'1 1.8
2017-Dec-11 13:30N 52°01' E 004°41'2 3.1
2017-Dec-11 13:00N 51°60' E 004°42'3 5.3
2017-Dec-11 12:30N 51°58' E 004°38'2 4.6
2017-Dec-11 12:00N 51°56' E 004°37'3 5.5
2017-Dec-11 11:30N 51°54' E 004°33'4 7.3
2017-Dec-11 11:00N 51°52' E 004°38'3 6.7
2017-Dec-11 10:31N 51°49' E 004°41'4 7.2
2017-Dec-11 10:00N 51°49' E 004°47'4 7.5
2017-Dec-11 09:30N 51°49' E 004°53'4 7.9
2017-Dec-11 09:01N 51°49' E 004°59'4 8.6
2017-Dec-11 08:29N 51°49' E 005°06'5 8.7
2017-Dec-11 07:57N 51°49' E 005°14'4 8.5
2017-Dec-11 07:31N 51°49' E 005°20'9 8.0
2017-Dec-11 06:25N 51°54' E 005°32'4 9.3
2017-Dec-11 05:57N 51°54' E 005°39'13 0.8
2017-Dec-10 14:05N 51°52' E 005°59'2 8.3
2017-Dec-10 13:51N 51°53' E 006°01'3 9.6
2017-Dec-10 13:31N 51°51' E 006°06'5 9.8
2017-Dec-10 13:00N 51°50' E 006°13'12 8.4
2017-Dec-10 11:34N 51°42' E 006°28'110.2
2017-Dec-10 11:27N 51°41' E 006°28'4 9.4
2017-Dec-10 11:01N 51°40' E 006°35'5 8.7
2017-Dec-10 10:29N 51°35' E 006°36'4 7.5
2017-Dec-10 10:01N 51°34' E 006°41'4 8.3
2017-Dec-10 09:30N 51°30' E 006°43'3 6.5
2017-Dec-10 09:00N 51°27' E 006°43'4 8.1
2017-Dec-10 08:30N 51°22' E 006°42'4 5.9
2017-Dec-10 07:51N 51°19' E 006°44'3 8.8
2017-Dec-10 07:28N 51°15' E 006°43'2 3.8
2017-Dec-10 07:00N 51°14' E 006°44'4 7.5
2017-Dec-10 06:31N 51°11' E 006°48'15 1.3
2017-Dec-09 18:56N 50°59' E 006°60'4 9.1
2017-Dec-09 18:30N 50°55' E 006°59'3 6.2
2017-Dec-09 17:56N 50°52' E 007°01'94 4.3
2017-Dec-08 20:11N 49°35' E 008°25'2 9.5
2017-Dec-08 20:00N 49°33' E 008°25'4 8.8
2017-Dec-08 19:30N 49°29' E 008°27'3 5.6
2017-Dec-08 19:00N 49°27' E 008°29'  
2017-Dec-04 07:57N 49°22' E 008°30'2 4.7
2017-Dec-04 07:30N 49°24' E 008°30'2 4.9
2017-Dec-04 07:00N 49°26' E 008°30'2 4.8
2017-Dec-04 06:30N 49°27' E 008°27'2 4.1
2017-Dec-04 06:00N 49°29' E 008°28'3 5.5
2017-Dec-04 05:30N 49°31' E 008°26'3 5.4
2017-Dec-04 04:58N 49°34' E 008°25'85 2.1
2017-Dec-02 12:10N 50°43' E 007°09'1 4.9
2017-Dec-02 12:00N 50°43' E 007°08'2 4.3
2017-Dec-02 11:30N 50°45' E 007°06'2 4.4
2017-Dec-02 11:00N 50°47' E 007°03'5 3.1
2017-Dec-02 09:23N 50°51' E 007°00'2 4.3
2017-Dec-02 08:59N 50°52' E 007°02'1 2.5
2017-Dec-02 08:29N 50°54' E 007°02'2 4.0
2017-Dec-02 08:00N 50°54' E 006°59'3 4.6
2017-Dec-02 07:26N 50°57' E 006°58'2 4.2
2017-Dec-02 06:58N 50°59' E 006°60'10 0.9
2017-Dec-01 19:52N 51°08' E 006°51'2 4.1
2017-Dec-01 19:30N 51°09' E 006°51'1 2.5
2017-Dec-01 19:00N 51°09' E 006°49'1 2.4
2017-Dec-01 18:30N 51°10' E 006°48'2 3.6
2017-Dec-01 18:01N 51°11' E 006°46'2 3.3
2017-Dec-01 17:30N 51°12' E 006°44'  

Dump ship's entire track history